sensor_id;sensor_type;location;lat;lon;timestamp;pressure;altitude;pressure_sealevel;temperature;humidity
7297;BME280;40758;54.038;11.684;2022-08-19T00:01:40;100904.44;;;19.22;100.00
7297;BME280;40758;54.038;11.684;2022-08-19T00:04:25;100903.22;;;19.25;100.00
7297;BME280;40758;54.038;11.684;2022-08-19T00:06:59;100905.41;;;19.29;100.00
7297;BME280;40758;54.038;11.684;2022-08-19T00:09:29;100908.44;;;19.34;100.00
7297;BME280;40758;54.038;11.684;2022-08-19T00:12:09;100911.97;;;19.43;100.00
7297;BME280;40758;54.038;11.684;2022-08-19T00:14:41;100901.56;;;19.47;100.00
7297;BME280;40758;54.038;11.684;2022-08-19T00:17:18;100898.31;;;19.51;100.00
7297;BME280;40758;54.038;11.684;2022-08-19T00:19:47;100897.56;;;19.57;100.00
7297;BME280;40758;54.038;11.684;2022-08-19T00:22:17;100882.56;;;19.61;100.00
7297;BME280;40758;54.038;11.684;2022-08-19T00:24:46;100878.44;;;19.65;100.00
7297;BME280;40758;54.038;11.684;2022-08-19T00:27:21;100875.53;;;19.67;100.00
7297;BME280;40758;54.038;11.684;2022-08-19T00:29:56;100870.94;;;19.67;100.00
7297;BME280;40758;54.038;11.684;2022-08-19T00:32:27;100863.97;;;19.65;100.00
7297;BME280;40758;54.038;11.684;2022-08-19T00:35:04;100866.88;;;19.63;100.00
7297;BME280;40758;54.038;11.684;2022-08-19T00:37:38;100879.00;;;19.61;100.00
7297;BME280;40758;54.038;11.684;2022-08-19T00:40:12;100879.16;;;19.59;100.00
7297;BME280;40758;54.038;11.684;2022-08-19T00:42:43;100875.97;;;19.56;100.00
7297;BME280;40758;54.038;11.684;2022-08-19T00:45:19;100890.13;;;19.51;100.00
7297;BME280;40758;54.038;11.684;2022-08-19T00:48:03;100901.91;;;19.44;100.00
7297;BME280;40758;54.038;11.684;2022-08-19T00:50:44;100904.81;;;19.42;100.00
7297;BME280;40758;54.038;11.684;2022-08-19T00:53:26;100914.19;;;19.39;100.00
7297;BME280;40758;54.038;11.684;2022-08-19T00:55:59;100912.19;;;19.33;100.00
7297;BME280;40758;54.038;11.684;2022-08-19T00:58:34;100912.19;;;19.33;100.00
7297;BME280;40758;54.038;11.684;2022-08-19T01:01:09;100915.75;;;19.34;100.00
7297;BME280;40758;54.038;11.684;2022-08-19T01:05:33;100910.84;;;19.29;100.00
7297;BME280;40758;54.038;11.684;2022-08-19T01:08:06;100915.28;;;19.30;100.00
7297;BME280;40758;54.038;11.684;2022-08-19T01:10:41;100914.59;;;19.28;100.00
7297;BME280;40758;54.038;11.684;2022-08-19T01:13:17;100916.78;;;19.33;100.00
7297;BME280;40758;54.038;11.684;2022-08-19T01:16:01;100916.59;;;19.34;100.00
7297;BME280;40758;54.038;11.684;2022-08-19T01:18:36;100923.75;;;19.35;100.00
7297;BME280;40758;54.038;11.684;2022-08-19T01:21:21;100911.16;;;19.34;100.00
7297;BME280;40758;54.038;11.684;2022-08-19T01:23:57;100914.03;;;19.41;100.00
7297;BME280;40758;54.038;11.684;2022-08-19T01:26:29;100907.88;;;19.39;100.00
7297;BME280;40758;54.038;11.684;2022-08-19T01:29:08;100913.00;;;19.42;100.00
7297;BME280;40758;54.038;11.684;2022-08-19T01:31:43;100923.72;;;19.44;100.00
7297;BME280;40758;54.038;11.684;2022-08-19T01:34:17;100927.63;;;19.41;100.00
7297;BME280;40758;54.038;11.684;2022-08-19T01:36:47;100940.91;;;19.44;100.00
7297;BME280;40758;54.038;11.684;2022-08-19T01:39:23;100933.78;;;19.43;100.00
7297;BME280;40758;54.038;11.684;2022-08-19T01:41:56;100931.38;;;19.48;100.00
7297;BME280;40758;54.038;11.684;2022-08-19T01:44:30;100948.19;;;19.52;100.00
7297;BME280;40758;54.038;11.684;2022-08-19T01:46:59;100954.16;;;19.55;100.00
7297;BME280;40758;54.038;11.684;2022-08-19T01:49:31;100952.75;;;19.59;100.00
7297;BME280;40758;54.038;11.684;2022-08-19T01:52:06;100963.66;;;19.59;100.00
7297;BME280;40758;54.038;11.684;2022-08-19T01:54:44;100964.03;;;19.56;100.00
7297;BME280;40758;54.038;11.684;2022-08-19T01:57:17;100977.75;;;19.63;100.00
7297;BME280;40758;54.038;11.684;2022-08-19T01:59:47;100969.41;;;19.64;100.00
7297;BME280;40758;54.038;11.684;2022-08-19T02:02:22;100965.66;;;19.65;100.00
7297;BME280;40758;54.038;11.684;2022-08-19T02:04:53;100963.78;;;19.66;100.00
7297;BME280;40758;54.038;11.684;2022-08-19T02:07:22;100961.22;;;19.64;100.00
7297;BME280;40758;54.038;11.684;2022-08-19T02:09:54;100962.47;;;19.62;100.00
7297;BME280;40758;54.038;11.684;2022-08-19T02:12:29;100955.47;;;19.59;100.00
7297;BME280;40758;54.038;11.684;2022-08-19T02:15:00;100966.75;;;19.56;100.00
7297;BME280;40758;54.038;11.684;2022-08-19T02:17:36;100970.50;;;19.55;100.00
7297;BME280;40758;54.038;11.684;2022-08-19T02:20:10;100957.41;;;19.51;100.00
7297;BME280;40758;54.038;11.684;2022-08-19T02:22:43;100964.94;;;19.49;100.00
7297;BME280;40758;54.038;11.684;2022-08-19T02:25:15;100962.72;;;19.44;100.00
7297;BME280;40758;54.038;11.684;2022-08-19T02:27:49;100968.03;;;19.37;100.00
7297;BME280;40758;54.038;11.684;2022-08-19T02:30:21;100975.00;;;19.32;100.00
7297;BME280;40758;54.038;11.684;2022-08-19T02:32:55;100970.47;;;19.24;100.00
7297;BME280;40758;54.038;11.684;2022-08-19T02:35:25;100974.78;;;19.19;100.00
7297;BME280;40758;54.038;11.684;2022-08-19T02:37:55;100969.66;;;19.16;100.00
7297;BME280;40758;54.038;11.684;2022-08-19T02:40:49;100964.59;;;19.13;100.00
7297;BME280;40758;54.038;11.684;2022-08-19T02:43:25;100955.06;;;19.09;100.00
7297;BME280;40758;54.038;11.684;2022-08-19T02:46:00;100960.66;;;19.07;100.00
7297;BME280;40758;54.038;11.684;2022-08-19T02:48:29;100962.56;;;19.07;100.00
7297;BME280;40758;54.038;11.684;2022-08-19T02:51:03;100964.06;;;19.09;100.00
7297;BME280;40758;54.038;11.684;2022-08-19T02:53:34;100968.31;;;19.12;100.00
7297;BME280;40758;54.038;11.684;2022-08-19T02:56:09;100970.88;;;19.13;100.00
7297;BME280;40758;54.038;11.684;2022-08-19T02:58:44;100978.84;;;19.15;100.00
7297;BME280;40758;54.038;11.684;2022-08-19T03:01:21;100974.94;;;19.17;100.00
7297;BME280;40758;54.038;11.684;2022-08-19T03:05:32;100976.81;;;19.17;100.00
7297;BME280;40758;54.038;11.684;2022-08-19T03:08:23;100967.97;;;19.15;100.00
7297;BME280;40758;54.038;11.684;2022-08-19T03:10:55;100962.34;;;19.16;100.00
7297;BME280;40758;54.038;11.684;2022-08-19T03:13:30;100965.44;;;19.13;100.00
7297;BME280;40758;54.038;11.684;2022-08-19T03:15:59;100968.16;;;19.13;100.00
7297;BME280;40758;54.038;11.684;2022-08-19T03:18:33;100970.03;;;19.13;100.00
7297;BME280;40758;54.038;11.684;2022-08-19T03:21:04;100964.59;;;19.13;100.00
7297;BME280;40758;54.038;11.684;2022-08-19T03:23:41;100960.81;;;19.14;100.00
7297;BME280;40758;54.038;11.684;2022-08-19T03:26:13;100960.81;;;19.14;100.00
7297;BME280;40758;54.038;11.684;2022-08-19T03:28:50;100965.22;;;19.15;100.00
7297;BME280;40758;54.038;11.684;2022-08-19T03:31:26;100968.31;;;19.12;100.00
7297;BME280;40758;54.038;11.684;2022-08-19T03:34:20;100976.97;;;19.15;100.00
7297;BME280;40758;54.038;11.684;2022-08-19T03:36:55;100966.75;;;19.17;100.00
7297;BME280;40758;54.038;11.684;2022-08-19T03:39:27;100964.03;;;19.17;100.00
7297;BME280;40758;54.038;11.684;2022-08-19T03:42:00;100966.25;;;19.14;100.00
7297;BME280;40758;54.038;11.684;2022-08-19T03:44:57;100970.50;;;19.16;100.00
7297;BME280;40758;54.038;11.684;2022-08-19T03:47:27;100973.91;;;19.18;100.00
7297;BME280;40758;54.038;11.684;2022-08-19T03:49:56;100971.19;;;19.18;100.00
7297;BME280;40758;54.038;11.684;2022-08-19T03:52:28;100974.56;;;19.20;100.00
7297;BME280;40758;54.038;11.684;2022-08-19T03:54:58;100975.25;;;19.22;100.00
7297;BME280;40758;54.038;11.684;2022-08-19T03:57:35;100985.66;;;19.19;100.00
7297;BME280;40758;54.038;11.684;2022-08-19T04:00:09;100995.50;;;19.20;100.00
7297;BME280;40758;54.038;11.684;2022-08-19T04:54:58;101044.47;;;19.44;100.00
7297;BME280;40758;54.038;11.684;2022-08-19T04:57:43;101052.63;;;19.44;100.00
7297;BME280;40758;54.038;11.684;2022-08-19T05:00:25;101040.19;;;19.42;100.00
7297;BME280;40758;54.038;11.684;2022-08-19T05:05:38;101040.00;;;19.51;100.00
7297;BME280;40758;54.038;11.684;2022-08-19T05:26:56;101067.59;;;19.87;100.00
7297;BME280;40758;54.038;11.684;2022-08-19T05:29:27;101073.88;;;19.88;100.00
7297;BME280;40758;54.038;11.684;2022-08-19T05:32:05;101084.31;;;19.84;100.00
7297;BME280;40758;54.038;11.684;2022-08-19T05:34:37;101074.94;;;19.87;100.00
7297;BME280;40758;54.038;11.684;2022-08-19T05:37:07;101085.84;;;19.87;100.00
7297;BME280;40758;54.038;11.684;2022-08-19T05:39:38;101086.16;;;19.92;100.00
7297;BME280;40758;54.038;11.684;2022-08-19T05:42:18;101098.03;;;19.99;100.00
7297;BME280;40758;54.038;11.684;2022-08-19T05:44:51;101096.97;;;20.00;100.00
7297;BME280;40758;54.038;11.684;2022-08-19T05:47:21;101096.69;;;19.95;100.00
7297;BME280;40758;54.038;11.684;2022-08-19T05:49:53;101093.94;;;19.95;100.00
7297;BME280;40758;54.038;11.684;2022-08-19T05:52:22;101097.06;;;19.92;100.00
7297;BME280;40758;54.038;11.684;2022-08-19T05:54:55;101099.09;;;19.90;100.00
7297;BME280;40758;54.038;11.684;2022-08-19T05:57:25;101095.31;;;19.99;100.00
7297;BME280;40758;54.038;11.684;2022-08-19T05:59:59;101074.44;;;20.06;100.00
7297;BME280;40758;54.038;11.684;2022-08-19T06:02:29;101083.59;;;20.13;100.00
7297;BME280;40758;54.038;11.684;2022-08-19T06:04:59;101073.53;;;20.13;100.00
7297;BME280;40758;54.038;11.684;2022-08-19T06:07:29;101086.34;;;20.13;100.00
7297;BME280;40758;54.038;11.684;2022-08-19T06:09:59;101084.84;;;20.10;100.00
7297;BME280;40758;54.038;11.684;2022-08-19T06:12:35;101085.16;;;19.85;100.00
7297;BME280;40758;54.038;11.684;2022-08-19T06:15:10;101081.66;;;19.99;100.00
7297;BME280;40758;54.038;11.684;2022-08-19T06:17:44;101079.47;;;19.94;100.00
7297;BME280;40758;54.038;11.684;2022-08-19T06:20:15;101072.78;;;20.05;100.00
7297;BME280;40758;54.038;11.684;2022-08-19T06:23:05;101070.22;;;20.03;100.00
7297;BME280;40758;54.038;11.684;2022-08-19T06:25:43;101068.97;;;20.06;100.00
7297;BME280;40758;54.038;11.684;2022-08-19T06:28:13;101067.63;;;20.10;100.00
7297;BME280;40758;54.038;11.684;2022-08-19T06:30:42;101067.75;;;20.16;100.00
7297;BME280;40758;54.038;11.684;2022-08-19T06:33:12;101072.66;;;20.21;100.00
7297;BME280;40758;54.038;11.684;2022-08-19T06:35:44;101063.59;;;20.20;100.00
7297;BME280;40758;54.038;11.684;2022-08-19T06:38:13;101065.47;;;20.20;100.00
7297;BME280;40758;54.038;11.684;2022-08-19T06:40:42;101065.59;;;20.27;100.00
7297;BME280;40758;54.038;11.684;2022-08-19T06:43:13;101069.88;;;20.29;100.00
7297;BME280;40758;54.038;11.684;2022-08-19T06:45:44;101072.94;;;20.26;100.00
7297;BME280;40758;54.038;11.684;2022-08-19T06:48:14;101065.13;;;20.23;100.00
7297;BME280;40758;54.038;11.684;2022-08-19T06:50:44;101065.13;;;20.23;100.00
7297;BME280;40758;54.038;11.684;2022-08-19T06:53:13;101066.25;;;20.06;100.00
7297;BME280;40758;54.038;11.684;2022-08-19T06:55:42;101061.59;;;20.14;100.00
7297;BME280;40758;54.038;11.684;2022-08-19T06:58:13;101070.75;;;20.22;100.00
7297;BME280;40758;54.038;11.684;2022-08-19T07:00:42;101060.69;;;20.22;100.00
7297;BME280;40758;54.038;11.684;2022-08-19T07:05:31;101067.47;;;20.26;100.00
7297;BME280;40758;54.038;11.684;2022-08-19T07:08:00;101059.59;;;20.31;100.00
7297;BME280;40758;54.038;11.684;2022-08-19T07:10:34;101060.66;;;20.30;100.00
7297;BME280;40758;54.038;11.684;2022-08-19T07:13:08;101056.94;;;20.23;100.00
7297;BME280;40758;54.038;11.684;2022-08-19T07:15:39;101051.28;;;20.25;100.00
7297;BME280;40758;54.038;11.684;2022-08-19T07:18:09;101048.22;;;20.28;100.00
7297;BME280;40758;54.038;11.684;2022-08-19T07:20:40;101052.13;;;20.33;100.00
7297;BME280;40758;54.038;11.684;2022-08-19T07:23:13;101041.22;;;20.25;100.00
7297;BME280;40758;54.038;11.684;2022-08-19T07:25:45;101054.41;;;20.22;100.00
7297;BME280;40758;54.038;11.684;2022-08-19T07:28:19;101041.66;;;20.14;100.00
7297;BME280;40758;54.038;11.684;2022-08-19T07:30:51;101045.25;;;20.14;100.00
7297;BME280;40758;54.038;11.684;2022-08-19T07:33:23;101033.19;;;20.09;100.00
7297;BME280;40758;54.038;11.684;2022-08-19T07:35:58;101035.97;;;20.01;100.00
7297;BME280;40758;54.038;11.684;2022-08-19T07:38:29;101024.91;;;19.94;100.00
7297;BME280;40758;54.038;11.684;2022-08-19T07:41:00;101037.91;;;19.92;100.00
7297;BME280;40758;54.038;11.684;2022-08-19T07:43:30;101037.22;;;19.90;100.00
7297;BME280;40758;54.038;11.684;2022-08-19T07:46:01;101043.56;;;19.83;100.00
7297;BME280;40758;54.038;11.684;2022-08-19T07:48:30;101043.56;;;19.83;100.00
7297;BME280;40758;54.038;11.684;2022-08-19T07:51:05;101044.25;;;19.85;100.00
7297;BME280;40758;54.038;11.684;2022-08-19T07:53:37;101053.28;;;19.85;100.00
7297;BME280;40758;54.038;11.684;2022-08-19T07:56:07;101066.09;;;19.76;100.00
7297;BME280;40758;54.038;11.684;2022-08-19T07:58:40;101070.38;;;19.79;100.00
7297;BME280;40758;54.038;11.684;2022-08-19T08:01:13;101066.06;;;19.85;100.00
7297;BME280;40758;54.038;11.684;2022-08-19T08:03:43;101073.06;;;19.87;100.00
7297;BME280;40758;54.038;11.684;2022-08-19T08:07:29;101074.84;;;19.95;100.00
7297;BME280;40758;54.038;11.684;2022-08-19T08:10:18;101063.78;;;19.96;100.00
7297;BME280;40758;54.038;11.684;2022-08-19T08:12:53;101064.63;;;19.97;100.00
7297;BME280;40758;54.038;11.684;2022-08-19T08:15:38;101066.63;;;20.03;100.00
7297;BME280;40758;54.038;11.684;2022-08-19T08:18:10;101073.13;;;20.02;100.00
7297;BME280;40758;54.038;11.684;2022-08-19T08:20:41;101077.53;;;20.03;100.00
7297;BME280;40758;54.038;11.684;2022-08-19T08:23:18;101078.41;;;20.03;100.00
7297;BME280;40758;54.038;11.684;2022-08-19T08:25:56;101075.50;;;20.05;100.00
7297;BME280;40758;54.038;11.684;2022-08-19T08:28:27;101080.94;;;20.05;100.00
7297;BME280;40758;54.038;11.684;2022-08-19T08:30:58;101080.44;;;20.01;100.00
7297;BME280;40758;54.038;11.684;2022-08-19T08:33:36;101084.31;;;20.07;100.00
7297;BME280;40758;54.038;11.684;2022-08-19T08:36:06;101089.78;;;20.07;100.00
7297;BME280;40758;54.038;11.684;2022-08-19T08:38:41;101083.69;;;20.05;100.00
7297;BME280;40758;54.038;11.684;2022-08-19T08:44:04;101083.97;;;20.10;100.00
7297;BME280;40758;54.038;11.684;2022-08-19T08:46:39;101087.84;;;20.15;100.00
7297;BME280;40758;54.038;11.684;2022-08-19T08:49:29;101096.22;;;20.14;100.00
7297;BME280;40758;54.038;11.684;2022-08-19T08:52:10;101088.22;;;20.12;100.00
7297;BME280;40758;54.038;11.684;2022-08-19T08:54:46;101104.81;;;20.03;100.00
7297;BME280;40758;54.038;11.684;2022-08-19T08:57:30;101103.13;;;20.02;100.00
7297;BME280;40758;54.038;11.684;2022-08-19T09:00:20;101108.22;;;20.05;100.00
7297;BME280;40758;54.038;11.684;2022-08-19T09:05:39;101104.09;;;20.09;100.00
7297;BME280;40758;54.038;11.684;2022-08-19T09:08:25;101100.34;;;20.10;100.00
7297;BME280;40758;54.038;11.684;2022-08-19T09:10:57;101105.81;;;20.10;100.00
7297;BME280;40758;54.038;11.684;2022-08-19T09:13:35;101102.56;;;20.06;100.00
7297;BME280;40758;54.038;11.684;2022-08-19T09:16:14;101104.81;;;20.03;100.00
7297;BME280;40758;54.038;11.684;2022-08-19T09:18:53;101110.41;;;20.09;100.00
7297;BME280;40758;54.038;11.684;2022-08-19T09:21:37;101109.56;;;20.09;100.00
7297;BME280;40758;54.038;11.684;2022-08-19T09:24:11;101106.16;;;20.07;100.00
7297;BME280;40758;54.038;11.684;2022-08-19T09:26:45;101103.75;;;20.12;100.00
7297;BME280;40758;54.038;11.684;2022-08-19T09:29:19;101107.13;;;20.14;100.00
7297;BME280;40758;54.038;11.684;2022-08-19T09:31:49;101113.09;;;20.17;100.00
7297;BME280;40758;54.038;11.684;2022-08-19T09:34:18;101116.00;;;20.16;100.00
7297;BME280;40758;54.038;11.684;2022-08-19T09:36:51;101110.66;;;20.23;100.00
7297;BME280;40758;54.038;11.684;2022-08-19T09:39:29;101118.69;;;20.24;100.00
7297;BME280;40758;54.038;11.684;2022-08-19T09:42:22;101122.78;;;20.20;100.00
7297;BME280;40758;54.038;11.684;2022-08-19T09:46:05;101120.84;;;20.29;100.00
7297;BME280;40758;54.038;11.684;2022-08-19T09:48:44;101123.75;;;20.35;100.00
7297;BME280;40758;54.038;11.684;2022-08-19T09:51:19;101114.44;;;20.44;100.00
7297;BME280;40758;54.038;11.684;2022-08-19T09:53:52;101124.16;;;20.47;100.00
7297;BME280;40758;54.038;11.684;2022-08-19T09:56:23;101117.25;;;20.36;100.00
7297;BME280;40758;54.038;11.684;2022-08-19T09:58:52;101125.63;;;20.35;100.00
7297;BME280;40758;54.038;11.684;2022-08-19T10:01:24;101118.59;;;20.40;100.00
7297;BME280;40758;54.038;11.684;2022-08-19T10:03:58;101113.97;;;20.41;100.00
7297;BME280;40758;54.038;11.684;2022-08-19T10:06:29;101108.41;;;20.34;100.00
7297;BME280;40758;54.038;11.684;2022-08-19T10:09:16;101110.09;;;20.35;100.00
7297;BME280;40758;54.038;11.684;2022-08-19T10:12:02;101112.75;;;20.43;100.00
7297;BME280;40758;54.038;11.684;2022-08-19T10:14:32;101110.00;;;20.43;100.00
7297;BME280;40758;54.038;11.684;2022-08-19T10:17:02;101097.44;;;20.42;100.00
7297;BME280;40758;54.038;11.684;2022-08-19T10:19:48;101101.00;;;20.43;100.00
7297;BME280;40758;54.038;11.684;2022-08-19T10:22:21;101103.06;;;20.41;100.00
7297;BME280;40758;54.038;11.684;2022-08-19T10:24:53;101102.94;;;20.34;100.00
7297;BME280;40758;54.038;11.684;2022-08-19T10:27:24;101107.38;;;20.35;100.00
7297;BME280;40758;54.038;11.684;2022-08-19T10:29:53;101108.41;;;20.34;100.00
7297;BME280;40758;54.038;11.684;2022-08-19T10:32:24;101106.34;;;20.36;100.00
7297;BME280;40758;54.038;11.684;2022-08-19T10:35:01;101110.09;;;20.35;100.00
7297;BME280;40758;54.038;11.684;2022-08-19T10:37:32;101109.72;;;20.38;100.00
7297;BME280;40758;54.038;11.684;2022-08-19T10:40:04;101095.78;;;20.33;100.00
7297;BME280;40758;54.038;11.684;2022-08-19T10:42:36;101101.19;;;20.41;100.00
7297;BME280;40758;54.038;11.684;2022-08-19T10:45:06;101103.00;;;20.49;100.00
7297;BME280;40758;54.038;11.684;2022-08-19T10:47:37;101103.53;;;20.44;100.00
7297;BME280;40758;54.038;11.684;2022-08-19T10:50:07;101110.34;;;20.48;100.00
7297;BME280;40758;54.038;11.684;2022-08-19T10:52:54;101107.06;;;20.53;100.00
7297;BME280;40758;54.038;11.684;2022-08-19T10:55:25;101105.47;;;20.58;100.00
7297;BME280;40758;54.038;11.684;2022-08-19T10:58:14;101106.56;;;20.49;100.00
7297;BME280;40758;54.038;11.684;2022-08-19T11:00:51;101112.00;;;20.49;100.00
7297;BME280;40758;54.038;11.684;2022-08-19T11:05:28;101109.59;;;20.54;100.00
7297;BME280;40758;54.038;11.684;2022-08-19T11:08:06;101109.97;;;20.51;100.00
7297;BME280;40758;54.038;11.684;2022-08-19T11:10:51;101111.28;;;20.55;100.00
7297;BME280;40758;54.038;11.684;2022-08-19T11:13:28;101105.94;;;20.62;100.00
7297;BME280;40758;54.038;11.684;2022-08-19T11:16:00;101102.44;;;20.53;100.00
7297;BME280;40758;54.038;11.684;2022-08-19T11:18:36;101099.16;;;20.58;100.00
7297;BME280;40758;54.038;11.684;2022-08-19T11:21:10;101105.28;;;20.60;100.00
7297;BME280;40758;54.038;11.684;2022-08-19T11:23:39;101104.75;;;20.65;100.00
7297;BME280;40758;54.038;11.684;2022-08-19T11:26:09;101100.13;;;20.65;100.00
7297;BME280;40758;54.038;11.684;2022-08-19T11:28:38;101103.22;;;20.62;100.00
7297;BME280;40758;54.038;11.684;2022-08-19T11:31:11;101098.81;;;20.61;100.00
7297;BME280;40758;54.038;11.684;2022-08-19T11:33:42;101090.78;;;20.59;100.00
7297;BME280;40758;54.038;11.684;2022-08-19T11:36:15;101096.38;;;20.66;100.00
7297;BME280;40758;54.038;11.684;2022-08-19T11:38:45;101099.00;;;20.74;100.00
7297;BME280;40758;54.038;11.684;2022-08-19T11:41:19;101091.78;;;20.81;100.00
7297;BME280;40758;54.038;11.684;2022-08-19T11:43:47;101097.06;;;20.83;100.00
7297;BME280;40758;54.038;11.684;2022-08-19T11:46:17;101098.75;;;20.84;100.00
7297;BME280;40758;54.038;11.684;2022-08-19T11:48:46;101087.44;;;20.87;100.00
7297;BME280;40758;54.038;11.684;2022-08-19T11:51:20;101085.41;;;20.89;100.00
7297;BME280;40758;54.038;11.684;2022-08-19T11:53:50;101096.03;;;20.98;100.00
7297;BME280;40758;54.038;11.684;2022-08-19T11:56:20;101088.31;;;20.87;100.00
7297;BME280;40758;54.038;11.684;2022-08-19T11:58:50;101089.72;;;20.83;100.00
7297;BME280;40758;54.038;11.684;2022-08-19T12:01:21;101084.94;;;20.85;100.00
7297;BME280;40758;54.038;11.684;2022-08-19T12:03:53;101085.84;;;20.78;100.00
7297;BME280;40758;54.038;11.684;2022-08-19T12:06:28;101081.41;;;20.77;100.00
7297;BME280;40758;54.038;11.684;2022-08-19T12:09:00;101080.56;;;20.76;100.00
7297;BME280;40758;54.038;11.684;2022-08-19T12:11:29;101078.22;;;20.88;100.00
7297;BME280;40758;54.038;11.684;2022-08-19T12:14:01;101083.44;;;20.97;100.00
7297;BME280;40758;54.038;11.684;2022-08-19T12:16:31;101080.59;;;20.91;100.00
7297;BME280;40758;54.038;11.684;2022-08-19T12:19:04;101075.53;;;21.03;100.00
7297;BME280;40758;54.038;11.684;2022-08-19T12:21:36;101078.44;;;21.01;100.00
7297;BME280;40758;54.038;11.684;2022-08-19T12:24:06;101086.38;;;21.11;100.00
7297;BME280;40758;54.038;11.684;2022-08-19T12:26:35;101082.22;;;21.15;100.00
7297;BME280;40758;54.038;11.684;2022-08-19T12:29:20;101067.91;;;20.98;100.00
7297;BME280;40758;54.038;11.684;2022-08-19T12:31:56;101073.94;;;21.08;100.00
7297;BME280;40758;54.038;11.684;2022-08-19T12:34:31;101079.66;;;20.98;100.00
7297;BME280;40758;54.038;11.684;2022-08-19T12:37:05;101074.28;;;21.05;100.00
7297;BME280;40758;54.038;11.684;2022-08-19T12:39:40;101064.97;;;20.99;100.00
7297;BME280;40758;54.038;11.684;2022-08-19T12:42:11;101073.25;;;21.06;100.00
7297;BME280;40758;54.038;11.684;2022-08-19T12:44:42;101069.59;;;21.14;100.00
7297;BME280;40758;54.038;11.684;2022-08-19T12:47:12;101062.78;;;20.95;100.00
7297;BME280;40758;54.038;11.684;2022-08-19T12:49:42;101056.00;;;21.06;100.00
7297;BME280;40758;54.038;11.684;2022-08-19T12:52:23;101062.94;;;21.16;100.00
7297;BME280;40758;54.038;11.684;2022-08-19T12:54:55;101059.25;;;21.24;100.00
7297;BME280;40758;54.038;11.684;2022-08-19T12:57:26;101047.09;;;21.26;100.00
7297;BME280;40758;54.038;11.684;2022-08-19T13:00:03;101052.84;;;21.31;100.00
7297;BME280;40758;54.038;11.684;2022-08-19T13:05:36;101040.34;;;21.22;100.00
7297;BME280;40758;54.038;11.684;2022-08-19T13:08:04;101041.63;;;21.26;100.00
7297;BME280;40758;54.038;11.684;2022-08-19T13:10:36;101040.22;;;21.30;100.00
7297;BME280;40758;54.038;11.684;2022-08-19T13:13:08;101048.69;;;21.35;100.00
7297;BME280;40758;54.038;11.684;2022-08-19T13:15:39;101037.75;;;21.35;100.00
7297;BME280;40758;54.038;11.684;2022-08-19T13:18:10;101044.91;;;21.36;100.00
7297;BME280;40758;54.038;11.684;2022-08-19T13:20:42;101046.72;;;21.44;100.00
7297;BME280;40758;54.038;11.684;2022-08-19T13:23:19;101036.41;;;21.61;100.00
7297;BME280;40758;54.038;11.684;2022-08-19T13:25:56;101037.59;;;21.73;100.00
7297;BME280;40758;54.038;11.684;2022-08-19T13:28:26;101032.94;;;21.88;100.00
7297;BME280;40758;54.038;11.684;2022-08-19T13:31:20;101028.25;;;21.97;100.00
7297;BME280;40758;54.038;11.684;2022-08-19T13:34:06;101029.47;;;22.15;100.00
7297;BME280;40758;54.038;11.684;2022-08-19T13:36:38;101025.88;;;22.36;100.00
7297;BME280;40758;54.038;11.684;2022-08-19T13:39:08;101026.41;;;22.53;100.00
7297;BME280;40758;54.038;11.684;2022-08-19T13:41:43;101017.53;;;22.72;100.00
7297;BME280;40758;54.038;11.684;2022-08-19T13:44:15;101014.09;;;22.91;100.00
7297;BME280;40758;54.038;11.684;2022-08-19T13:46:45;101003.38;;;22.96;100.00
7297;BME280;40758;54.038;11.684;2022-08-19T13:49:15;100992.56;;;23.23;100.00
7297;BME280;40758;54.038;11.684;2022-08-19T13:51:45;100988.69;;;23.52;100.00
7297;BME280;40758;54.038;11.684;2022-08-19T13:54:15;100973.97;;;23.59;100.00
7297;BME280;40758;54.038;11.684;2022-08-19T13:56:45;100965.09;;;23.64;100.00
7297;BME280;40758;54.038;11.684;2022-08-19T13:59:15;100955.84;;;23.71;100.00
7297;BME280;40758;54.038;11.684;2022-08-19T14:01:44;100952.03;;;23.59;100.00
7297;BME280;40758;54.038;11.684;2022-08-19T14:04:13;100936.03;;;23.69;100.00
7297;BME280;40758;54.038;11.684;2022-08-19T14:06:42;100936.03;;;23.83;100.00
7297;BME280;40758;54.038;11.684;2022-08-19T14:09:14;100927.63;;;24.04;100.00
7297;BME280;40758;54.038;11.684;2022-08-19T14:11:58;100934.78;;;23.85;100.00
7297;BME280;40758;54.038;11.684;2022-08-19T14:14:29;100927.16;;;23.67;100.00
7297;BME280;40758;54.038;11.684;2022-08-19T14:16:58;100917.22;;;23.66;100.00
7297;BME280;40758;54.038;11.684;2022-08-19T14:19:27;100917.84;;;23.55;100.00
7297;BME280;40758;54.038;11.684;2022-08-19T14:21:56;100915.03;;;23.42;100.00
7297;BME280;40758;54.038;11.684;2022-08-19T14:24:27;100909.94;;;23.26;100.00
7297;BME280;40758;54.038;11.684;2022-08-19T14:26:58;100913.47;;;23.13;100.00
7297;BME280;40758;54.038;11.684;2022-08-19T14:29:27;100913.03;;;23.10;100.00
7297;BME280;40758;54.038;11.684;2022-08-19T14:31:56;100921.88;;;23.12;100.00
7297;BME280;40758;54.038;11.684;2022-08-19T14:34:26;100919.25;;;22.90;100.00
7297;BME280;40758;54.038;11.684;2022-08-19T14:36:55;100922.91;;;22.70;100.00
7297;BME280;40758;54.038;11.684;2022-08-19T14:39:24;100929.16;;;22.57;100.00
7297;BME280;40758;54.038;11.684;2022-08-19T14:41:54;100928.06;;;22.51;100.00
7297;BME280;40758;54.038;11.684;2022-08-19T14:44:23;100925.66;;;22.42;100.00
7297;BME280;40758;54.038;11.684;2022-08-19T14:46:52;100936.28;;;22.51;100.00